sensor_id;sensor_type;location;lat;lon;timestamp;P1;durP1;ratioP1;P2;durP2;ratioP2
4210;SDS011;2119;48.828;12.396;2023-05-07T00:02:02;4.40;;;4.00;;
4210;SDS011;2119;48.828;12.396;2023-05-07T00:07:04;4.53;;;4.10;;
4210;SDS011;2119;48.828;12.396;2023-05-07T00:12:04;4.30;;;4.00;;
4210;SDS011;2119;48.828;12.396;2023-05-07T00:17:06;3.77;;;3.47;;
4210;SDS011;2119;48.828;12.396;2023-05-07T00:22:13;4.57;;;4.27;;
4210;SDS011;2119;48.828;12.396;2023-05-07T00:27:13;4.87;;;4.33;;
4210;SDS011;2119;48.828;12.396;2023-05-07T00:32:14;4.32;;;4.03;;
4210;SDS011;2119;48.828;12.396;2023-05-07T00:37:15;4.47;;;4.07;;
4210;SDS011;2119;48.828;12.396;2023-05-07T00:42:17;5.33;;;4.93;;
4210;SDS011;2119;48.828;12.396;2023-05-07T00:47:18;6.07;;;4.40;;
4210;SDS011;2119;48.828;12.396;2023-05-07T00:52:18;4.10;;;3.80;;
4210;SDS011;2119;48.828;12.396;2023-05-07T00:57:20;4.50;;;4.20;;
4210;SDS011;2119;48.828;12.396;2023-05-07T01:02:30;4.17;;;3.80;;
4210;SDS011;2119;48.828;12.396;2023-05-07T01:07:31;3.97;;;3.77;;
4210;SDS011;2119;48.828;12.396;2023-05-07T01:12:33;3.47;;;3.27;;
4210;SDS011;2119;48.828;12.396;2023-05-07T01:17:34;3.73;;;3.50;;
4210;SDS011;2119;48.828;12.396;2023-05-07T01:22:42;4.63;;;3.50;;
4210;SDS011;2119;48.828;12.396;2023-05-07T01:27:43;5.00;;;3.90;;
4210;SDS011;2119;48.828;12.396;2023-05-07T01:32:45;3.53;;;2.47;;
4210;SDS011;2119;48.828;12.396;2023-05-07T01:37:48;3.60;;;3.40;;
4210;SDS011;2119;48.828;12.396;2023-05-07T01:42:52;3.20;;;2.90;;
4210;SDS011;2119;48.828;12.396;2023-05-07T01:47:54;6.87;;;4.13;;
4210;SDS011;2119;48.828;12.396;2023-05-07T01:53:03;4.23;;;3.83;;
4210;SDS011;2119;48.828;12.396;2023-05-07T01:58:04;5.50;;;3.70;;
4210;SDS011;2119;48.828;12.396;2023-05-07T02:03:05;3.27;;;3.07;;
4210;SDS011;2119;48.828;12.396;2023-05-07T02:08:07;4.03;;;3.50;;
4210;SDS011;2119;48.828;12.396;2023-05-07T02:13:09;4.07;;;3.73;;
4210;SDS011;2119;48.828;12.396;2023-05-07T02:18:11;3.77;;;3.47;;
4210;SDS011;2119;48.828;12.396;2023-05-07T02:23:13;4.13;;;3.73;;
4210;SDS011;2119;48.828;12.396;2023-05-07T02:28:14;4.30;;;4.07;;
4210;SDS011;2119;48.828;12.396;2023-05-07T02:33:15;4.40;;;4.10;;
4210;SDS011;2119;48.828;12.396;2023-05-07T02:38:16;5.27;;;4.20;;
4210;SDS011;2119;48.828;12.396;2023-05-07T02:43:18;4.37;;;4.07;;
4210;SDS011;2119;48.828;12.396;2023-05-07T02:48:20;4.70;;;4.30;;
4210;SDS011;2119;48.828;12.396;2023-05-07T02:53:20;6.70;;;4.77;;
4210;SDS011;2119;48.828;12.396;2023-05-07T02:58:20;4.13;;;3.88;;
4210;SDS011;2119;48.828;12.396;2023-05-07T03:03:20;4.00;;;3.80;;
4210;SDS011;2119;48.828;12.396;2023-05-07T03:08:21;3.80;;;3.50;;
4210;SDS011;2119;48.828;12.396;2023-05-07T03:13:21;3.77;;;3.47;;
4210;SDS011;2119;48.828;12.396;2023-05-07T03:23:24;4.57;;;4.27;;
4210;SDS011;2119;48.828;12.396;2023-05-07T03:28:25;7.10;;;3.47;;
4210;SDS011;2119;48.828;12.396;2023-05-07T03:33:25;4.25;;;3.95;;
4210;SDS011;2119;48.828;12.396;2023-05-07T03:38:26;5.50;;;5.00;;
4210;SDS011;2119;48.828;12.396;2023-05-07T03:43:37;5.80;;;5.30;;
4210;SDS011;2119;48.828;12.396;2023-05-07T03:48:39;4.90;;;3.80;;
4210;SDS011;2119;48.828;12.396;2023-05-07T03:53:40;5.03;;;4.67;;
4210;SDS011;2119;48.828;12.396;2023-05-07T03:58:40;14.47;;;11.90;;
4210;SDS011;2119;48.828;12.396;2023-05-07T04:03:42;6.53;;;6.00;;
4210;SDS011;2119;48.828;12.396;2023-05-07T04:08:43;4.53;;;4.23;;
4210;SDS011;2119;48.828;12.396;2023-05-07T04:13:46;4.20;;;3.90;;
4210;SDS011;2119;48.828;12.396;2023-05-07T04:18:47;5.50;;;5.00;;
4210;SDS011;2119;48.828;12.396;2023-05-07T04:23:47;4.90;;;4.60;;
4210;SDS011;2119;48.828;12.396;2023-05-07T04:28:53;8.60;;;5.10;;
4210;SDS011;2119;48.828;12.396;2023-05-07T04:33:53;4.47;;;4.13;;
4210;SDS011;2119;48.828;12.396;2023-05-07T04:38:57;4.60;;;4.20;;
4210;SDS011;2119;48.828;12.396;2023-05-07T04:43:59;4.23;;;3.93;;
4210;SDS011;2119;48.828;12.396;2023-05-07T04:49:00;5.33;;;5.00;;
4210;SDS011;2119;48.828;12.396;2023-05-07T04:54:01;5.13;;;4.82;;
4210;SDS011;2119;48.828;12.396;2023-05-07T04:59:03;4.57;;;4.27;;
4210;SDS011;2119;48.828;12.396;2023-05-07T05:04:03;4.50;;;4.10;;
4210;SDS011;2119;48.828;12.396;2023-05-07T05:09:04;5.33;;;4.90;;
4210;SDS011;2119;48.828;12.396;2023-05-07T05:14:04;4.77;;;4.37;;
4210;SDS011;2119;48.828;12.396;2023-05-07T05:19:05;5.30;;;4.90;;
4210;SDS011;2119;48.828;12.396;2023-05-07T05:24:05;5.63;;;5.23;;
4210;SDS011;2119;48.828;12.396;2023-05-07T05:29:08;6.90;;;6.30;;
4210;SDS011;2119;48.828;12.396;2023-05-07T05:34:08;6.77;;;6.27;;
4210;SDS011;2119;48.828;12.396;2023-05-07T05:39:08;7.33;;;6.73;;
4210;SDS011;2119;48.828;12.396;2023-05-07T05:44:09;7.90;;;7.20;;
4210;SDS011;2119;48.828;12.396;2023-05-07T05:49:14;8.60;;;7.80;;
4210;SDS011;2119;48.828;12.396;2023-05-07T05:54:16;8.30;;;7.50;;
4210;SDS011;2119;48.828;12.396;2023-05-07T05:59:16;8.00;;;7.27;;
4210;SDS011;2119;48.828;12.396;2023-05-07T06:04:19;9.23;;;8.32;;
4210;SDS011;2119;48.828;12.396;2023-05-07T06:09:21;9.20;;;8.23;;
4210;SDS011;2119;48.828;12.396;2023-05-07T06:14:22;9.80;;;8.80;;
4210;SDS011;2119;48.828;12.396;2023-05-07T06:19:23;10.27;;;9.07;;
4210;SDS011;2119;48.828;12.396;2023-05-07T06:24:27;10.10;;;9.20;;
4210;SDS011;2119;48.828;12.396;2023-05-07T06:29:28;12.60;;;9.77;;
4210;SDS011;2119;48.828;12.396;2023-05-07T06:34:33;11.60;;;10.50;;
4210;SDS011;2119;48.828;12.396;2023-05-07T06:39:33;13.60;;;9.70;;
4210;SDS011;2119;48.828;12.396;2023-05-07T06:44:36;9.88;;;8.88;;
4210;SDS011;2119;48.828;12.396;2023-05-07T06:49:39;9.40;;;8.60;;
4210;SDS011;2119;48.828;12.396;2023-05-07T06:54:39;9.00;;;8.20;;
4210;SDS011;2119;48.828;12.396;2023-05-07T06:59:40;9.63;;;8.82;;
4210;SDS011;2119;48.828;12.396;2023-05-07T07:04:41;9.13;;;8.40;;
4210;SDS011;2119;48.828;12.396;2023-05-07T07:09:41;10.00;;;8.53;;
4210;SDS011;2119;48.828;12.396;2023-05-07T07:14:42;7.95;;;7.25;;
4210;SDS011;2119;48.828;12.396;2023-05-07T07:19:44;7.57;;;7.07;;
4210;SDS011;2119;48.828;12.396;2023-05-07T07:24:44;7.90;;;7.30;;
4210;SDS011;2119;48.828;12.396;2023-05-07T07:29:44;9.10;;;7.10;;
4210;SDS011;2119;48.828;12.396;2023-05-07T07:34:45;8.80;;;7.93;;
4210;SDS011;2119;48.828;12.396;2023-05-07T07:39:46;8.77;;;8.07;;
4210;SDS011;2119;48.828;12.396;2023-05-07T07:44:47;7.50;;;6.90;;
4210;SDS011;2119;48.828;12.396;2023-05-07T07:49:48;7.40;;;6.70;;
4210;SDS011;2119;48.828;12.396;2023-05-07T07:54:48;8.40;;;7.70;;
4210;SDS011;2119;48.828;12.396;2023-05-07T07:59:49;7.00;;;6.40;;
4210;SDS011;2119;48.828;12.396;2023-05-07T08:04:49;8.07;;;7.37;;
4210;SDS011;2119;48.828;12.396;2023-05-07T08:09:49;6.67;;;6.23;;
4210;SDS011;2119;48.828;12.396;2023-05-07T08:14:49;8.80;;;8.00;;
4210;SDS011;2119;48.828;12.396;2023-05-07T08:19:50;7.67;;;7.07;;
4210;SDS011;2119;48.828;12.396;2023-05-07T08:24:50;7.33;;;6.83;;
4210;SDS011;2119;48.828;12.396;2023-05-07T08:29:53;6.47;;;6.03;;
4210;SDS011;2119;48.828;12.396;2023-05-07T08:34:54;6.67;;;6.17;;
4210;SDS011;2119;48.828;12.396;2023-05-07T08:39:54;6.93;;;6.43;;
4210;SDS011;2119;48.828;12.396;2023-05-07T08:44:55;6.20;;;5.70;;
4210;SDS011;2119;48.828;12.396;2023-05-07T08:49:57;7.80;;;7.13;;
4210;SDS011;2119;48.828;12.396;2023-05-07T08:54:59;8.83;;;8.03;;
4210;SDS011;2119;48.828;12.396;2023-05-07T09:00:02;7.90;;;7.30;;
4210;SDS011;2119;48.828;12.396;2023-05-07T09:05:03;9.20;;;8.40;;
4210;SDS011;2119;48.828;12.396;2023-05-07T09:10:04;9.17;;;8.33;;
4210;SDS011;2119;48.828;12.396;2023-05-07T09:15:05;8.53;;;7.93;;
4210;SDS011;2119;48.828;12.396;2023-05-07T09:20:05;9.37;;;8.60;;
4210;SDS011;2119;48.828;12.396;2023-05-07T09:25:08;9.03;;;8.13;;
4210;SDS011;2119;48.828;12.396;2023-05-07T09:30:09;10.13;;;9.27;;
4210;SDS011;2119;48.828;12.396;2023-05-07T09:35:19;9.77;;;9.07;;
4210;SDS011;2119;48.828;12.396;2023-05-07T09:40:26;9.57;;;8.77;;
4210;SDS011;2119;48.828;12.396;2023-05-07T09:45:27;10.60;;;9.70;;
4210;SDS011;2119;48.828;12.396;2023-05-07T09:50:29;9.93;;;9.03;;
4210;SDS011;2119;48.828;12.396;2023-05-07T09:55:30;9.93;;;9.07;;
4210;SDS011;2119;48.828;12.396;2023-05-07T10:00:30;11.00;;;10.10;;
4210;SDS011;2119;48.828;12.396;2023-05-07T10:05:31;11.37;;;10.50;;
4210;SDS011;2119;48.828;12.396;2023-05-07T10:10:32;10.67;;;9.77;;
4210;SDS011;2119;48.828;12.396;2023-05-07T10:15:33;9.23;;;8.43;;
4210;SDS011;2119;48.828;12.396;2023-05-07T10:20:35;10.37;;;9.57;;
4210;SDS011;2119;48.828;12.396;2023-05-07T10:25:36;10.53;;;9.63;;
4210;SDS011;2119;48.828;12.396;2023-05-07T10:36:00;9.70;;;8.90;;
4210;SDS011;2119;48.828;12.396;2023-05-07T10:41:07;10.13;;;9.33;;
4210;SDS011;2119;48.828;12.396;2023-05-07T10:46:20;9.30;;;8.50;;
4210;SDS011;2119;48.828;12.396;2023-05-07T10:51:21;7.10;;;6.70;;
4210;SDS011;2119;48.828;12.396;2023-05-07T11:12:06;5.17;;;4.77;;
4210;SDS011;2119;48.828;12.396;2023-05-07T11:17:06;5.47;;;5.07;;
4210;SDS011;2119;48.828;12.396;2023-05-07T11:22:24;4.63;;;4.23;;
4210;SDS011;2119;48.828;12.396;2023-05-07T11:27:27;4.90;;;4.60;;
4210;SDS011;2119;48.828;12.396;2023-05-07T11:32:28;4.20;;;3.90;;
4210;SDS011;2119;48.828;12.396;2023-05-07T11:37:29;4.40;;;4.10;;
4210;SDS011;2119;48.828;12.396;2023-05-07T11:42:35;4.80;;;4.60;;
4210;SDS011;2119;48.828;12.396;2023-05-07T11:47:35;6.60;;;6.20;;
4210;SDS011;2119;48.828;12.396;2023-05-07T11:52:36;5.60;;;5.30;;
4210;SDS011;2119;48.828;12.396;2023-05-07T11:57:39;5.30;;;5.00;;
4210;SDS011;2119;48.828;12.396;2023-05-07T12:02:39;5.50;;;5.00;;
4210;SDS011;2119;48.828;12.396;2023-05-07T12:07:39;5.40;;;5.10;;
4210;SDS011;2119;48.828;12.396;2023-05-07T12:12:45;6.10;;;5.70;;
4210;SDS011;2119;48.828;12.396;2023-05-07T12:17:45;5.40;;;5.10;;
4210;SDS011;2119;48.828;12.396;2023-05-07T12:22:46;5.40;;;5.10;;
4210;SDS011;2119;48.828;12.396;2023-05-07T12:27:51;4.90;;;4.60;;
4210;SDS011;2119;48.828;12.396;2023-05-07T12:32:54;4.13;;;3.93;;
4210;SDS011;2119;48.828;12.396;2023-05-07T12:37:55;5.60;;;5.20;;
4210;SDS011;2119;48.828;12.396;2023-05-07T12:42:56;6.80;;;6.30;;
4210;SDS011;2119;48.828;12.396;2023-05-07T12:47:56;5.82;;;5.43;;
4210;SDS011;2119;48.828;12.396;2023-05-07T12:53:02;4.63;;;4.33;;
4210;SDS011;2119;48.828;12.396;2023-05-07T12:58:05;5.47;;;5.10;;
4210;SDS011;2119;48.828;12.396;2023-05-07T13:03:06;5.95;;;5.50;;
4210;SDS011;2119;48.828;12.396;2023-05-07T13:08:06;5.90;;;5.50;;
4210;SDS011;2119;48.828;12.396;2023-05-07T13:13:06;6.30;;;5.90;;
4210;SDS011;2119;48.828;12.396;2023-05-07T13:18:07;5.80;;;5.50;;
4210;SDS011;2119;48.828;12.396;2023-05-07T13:23:07;5.00;;;4.67;;
4210;SDS011;2119;48.828;12.396;2023-05-07T13:28:07;5.63;;;5.33;;
4210;SDS011;2119;48.828;12.396;2023-05-07T13:33:07;5.03;;;4.60;;
4210;SDS011;2119;48.828;12.396;2023-05-07T13:38:08;4.70;;;4.30;;
4210;SDS011;2119;48.828;12.396;2023-05-07T13:43:08;4.25;;;3.95;;
4210;SDS011;2119;48.828;12.396;2023-05-07T13:48:08;5.40;;;4.90;;
4210;SDS011;2119;48.828;12.396;2023-05-07T13:53:09;4.20;;;4.00;;
4210;SDS011;2119;48.828;12.396;2023-05-07T13:58:09;4.50;;;4.18;;
4210;SDS011;2119;48.828;12.396;2023-05-07T14:03:09;4.63;;;4.23;;
4210;SDS011;2119;48.828;12.396;2023-05-07T14:08:10;3.83;;;3.63;;
4210;SDS011;2119;48.828;12.396;2023-05-07T14:13:12;4.00;;;3.80;;
4210;SDS011;2119;48.828;12.396;2023-05-07T14:18:12;3.93;;;3.63;;
4210;SDS011;2119;48.828;12.396;2023-05-07T14:23:13;3.67;;;3.47;;
4210;SDS011;2119;48.828;12.396;2023-05-07T14:28:14;3.00;;;2.80;;
4210;SDS011;2119;48.828;12.396;2023-05-07T14:33:14;4.07;;;3.67;;
4210;SDS011;2119;48.828;12.396;2023-05-07T14:38:14;3.43;;;3.23;;
4210;SDS011;2119;48.828;12.396;2023-05-07T14:43:16;4.50;;;4.30;;
4210;SDS011;2119;48.828;12.396;2023-05-07T14:48:19;4.17;;;3.97;;
4210;SDS011;2119;48.828;12.396;2023-05-07T14:53:20;4.20;;;4.00;;
4210;SDS011;2119;48.828;12.396;2023-05-07T14:58:20;4.80;;;4.50;;
4210;SDS011;2119;48.828;12.396;2023-05-07T15:03:20;4.57;;;4.27;;
4210;SDS011;2119;48.828;12.396;2023-05-07T15:08:21;4.70;;;4.40;;
4210;SDS011;2119;48.828;12.396;2023-05-07T15:13:22;4.50;;;4.30;;
4210;SDS011;2119;48.828;12.396;2023-05-07T15:18:23;5.43;;;5.13;;
4210;SDS011;2119;48.828;12.396;2023-05-07T15:23:23;5.80;;;5.50;;
4210;SDS011;2119;48.828;12.396;2023-05-07T15:28:23;5.13;;;4.83;;
4210;SDS011;2119;48.828;12.396;2023-05-07T15:33:25;5.50;;;5.20;;
4210;SDS011;2119;48.828;12.396;2023-05-07T15:38:25;3.07;;;2.87;;
4210;SDS011;2119;48.828;12.396;2023-05-07T15:43:26;4.70;;;3.47;;
4210;SDS011;2119;48.828;12.396;2023-05-07T15:48:26;3.90;;;3.60;;
4210;SDS011;2119;48.828;12.396;2023-05-07T15:53:26;4.30;;;4.00;;
4210;SDS011;2119;48.828;12.396;2023-05-07T15:58:27;5.23;;;4.83;;
4210;SDS011;2119;48.828;12.396;2023-05-07T16:03:27;4.40;;;4.10;;
4210;SDS011;2119;48.828;12.396;2023-05-07T16:08:31;2.87;;;2.67;;
4210;SDS011;2119;48.828;12.396;2023-05-07T16:13:33;2.00;;;1.90;;
4210;SDS011;2119;48.828;12.396;2023-05-07T16:18:33;2.53;;;2.33;;
4210;SDS011;2119;48.828;12.396;2023-05-07T16:23:35;2.33;;;2.13;;
4210;SDS011;2119;48.828;12.396;2023-05-07T16:28:36;2.50;;;2.30;;
4210;SDS011;2119;48.828;12.396;2023-05-07T16:33:36;2.53;;;2.33;;
4210;SDS011;2119;48.828;12.396;2023-05-07T16:38:37;2.25;;;2.15;;
4210;SDS011;2119;48.828;12.396;2023-05-07T16:43:37;2.80;;;2.70;;
4210;SDS011;2119;48.828;12.396;2023-05-07T16:48:37;3.40;;;3.10;;
4210;SDS011;2119;48.828;12.396;2023-05-07T16:53:38;2.70;;;2.50;;
4210;SDS011;2119;48.828;12.396;2023-05-07T16:58:38;3.55;;;3.28;;
4210;SDS011;2119;48.828;12.396;2023-05-07T17:03:38;3.40;;;3.20;;
4210;SDS011;2119;48.828;12.396;2023-05-07T17:08:39;3.50;;;3.30;;
4210;SDS011;2119;48.828;12.396;2023-05-07T17:13:40;4.90;;;3.77;;
4210;SDS011;2119;48.828;12.396;2023-05-07T17:18:41;4.27;;;4.07;;
4210;SDS011;2119;48.828;12.396;2023-05-07T17:23:42;3.23;;;3.03;;
4210;SDS011;2119;48.828;12.396;2023-05-07T17:28:44;4.23;;;3.93;;
4210;SDS011;2119;48.828;12.396;2023-05-07T17:33:46;3.73;;;3.53;;
4210;SDS011;2119;48.828;12.396;2023-05-07T17:38:46;5.40;;;4.23;;
4210;SDS011;2119;48.828;12.396;2023-05-07T17:43:46;5.05;;;4.75;;
4210;SDS011;2119;48.828;12.396;2023-05-07T17:48:46;5.93;;;5.53;;
4210;SDS011;2119;48.828;12.396;2023-05-07T17:53:47;6.85;;;6.35;;
4210;SDS011;2119;48.828;12.396;2023-05-07T17:58:48;7.82;;;7.13;;
4210;SDS011;2119;48.828;12.396;2023-05-07T18:03:48;8.07;;;7.50;;
4210;SDS011;2119;48.828;12.396;2023-05-07T18:08:48;7.97;;;7.37;;
4210;SDS011;2119;48.828;12.396;2023-05-07T18:13:49;7.80;;;7.30;;
4210;SDS011;2119;48.828;12.396;2023-05-07T18:18:49;7.70;;;6.90;;
4210;SDS011;2119;48.828;12.396;2023-05-07T18:23:49;7.27;;;6.67;;
4210;SDS011;2119;48.828;12.396;2023-05-07T18:28:50;7.20;;;6.70;;
4210;SDS011;2119;48.828;12.396;2023-05-07T18:33:51;7.57;;;7.07;;
4210;SDS011;2119;48.828;12.396;2023-05-07T18:38:51;8.50;;;7.70;;
4210;SDS011;2119;48.828;12.396;2023-05-07T18:43:53;6.30;;;5.90;;
4210;SDS011;2119;48.828;12.396;2023-05-07T18:48:53;6.87;;;6.27;;
4210;SDS011;2119;48.828;12.396;2023-05-07T18:53:53;7.00;;;6.40;;
4210;SDS011;2119;48.828;12.396;2023-05-07T18:58:54;7.63;;;7.03;;
4210;SDS011;2119;48.828;12.396;2023-05-07T19:03:54;7.40;;;6.90;;
4210;SDS011;2119;48.828;12.396;2023-05-07T19:08:54;7.20;;;6.63;;
4210;SDS011;2119;48.828;12.396;2023-05-07T19:13:55;7.47;;;6.53;;
4210;SDS011;2119;48.828;12.396;2023-05-07T19:18:55;7.40;;;6.67;;
4210;SDS011;2119;48.828;12.396;2023-05-07T19:23:55;7.45;;;6.85;;
4210;SDS011;2119;48.828;12.396;2023-05-07T19:28:57;7.90;;;7.20;;
4210;SDS011;2119;48.828;12.396;2023-05-07T19:33:58;8.80;;;8.00;;
4210;SDS011;2119;48.828;12.396;2023-05-07T19:38:58;9.87;;;8.90;;
4210;SDS011;2119;48.828;12.396;2023-05-07T19:43:59;8.90;;;8.18;;
4210;SDS011;2119;48.828;12.396;2023-05-07T19:48:59;7.83;;;7.30;;
4210;SDS011;2119;48.828;12.396;2023-05-07T19:54:00;7.50;;;6.90;;
4210;SDS011;2119;48.828;12.396;2023-05-07T19:59:00;7.77;;;7.17;;
4210;SDS011;2119;48.828;12.396;2023-05-07T20:09:06;8.70;;;8.00;;
4210;SDS011;2119;48.828;12.396;2023-05-07T20:14:11;8.77;;;8.07;;
4210;SDS011;2119;48.828;12.396;2023-05-07T20:19:12;8.50;;;7.07;;
4210;SDS011;2119;48.828;12.396;2023-05-07T20:24:12;8.20;;;7.40;;
4210;SDS011;2119;48.828;12.396;2023-05-07T20:29:13;8.57;;;7.77;;
4210;SDS011;2119;48.828;12.396;2023-05-07T20:34:13;7.93;;;7.23;;
4210;SDS011;2119;48.828;12.396;2023-05-07T20:39:14;8.48;;;7.78;;
4210;SDS011;2119;48.828;12.396;2023-05-07T20:44:15;8.93;;;8.13;;
4210;SDS011;2119;48.828;12.396;2023-05-07T20:49:16;8.00;;;7.40;;
4210;SDS011;2119;48.828;12.396;2023-05-07T20:54:16;8.57;;;7.70;;
4210;SDS011;2119;48.828;12.396;2023-05-07T20:59:17;8.23;;;7.50;;
4210;SDS011;2119;48.828;12.396;2023-05-07T21:04:17;8.60;;;7.85;;
4210;SDS011;2119;48.828;12.396;2023-05-07T21:09:17;10.93;;;8.20;;
4210;SDS011;2119;48.828;12.396;2023-05-07T21:14:18;9.67;;;8.77;;
4210;SDS011;2119;48.828;12.396;2023-05-07T21:19:19;8.50;;;7.83;;
4210;SDS011;2119;48.828;12.396;2023-05-07T21:24:19;9.40;;;8.30;;
4210;SDS011;2119;48.828;12.396;2023-05-07T21:29:32;8.50;;;7.80;;
4210;SDS011;2119;48.828;12.396;2023-05-07T21:34:34;8.40;;;7.53;;
4210;SDS011;2119;48.828;12.396;2023-05-07T21:39:50;7.97;;;7.27;;
4210;SDS011;2119;48.828;12.396;2023-05-07T21:44:50;8.53;;;7.73;;
4210;SDS011;2119;48.828;12.396;2023-05-07T21:49:51;8.52;;;7.82;;
4210;SDS011;2119;48.828;12.396;2023-05-07T21:54:51;7.90;;;7.23;;
4210;SDS011;2119;48.828;12.396;2023-05-07T21:59:52;7.40;;;6.80;;
4210;SDS011;2119;48.828;12.396;2023-05-07T22:04:53;8.93;;;7.87;;
4210;SDS011;2119;48.828;12.396;2023-05-07T22:09:53;9.47;;;7.93;;
4210;SDS011;2119;48.828;12.396;2023-05-07T22:14:54;8.97;;;8.10;;
4210;SDS011;2119;48.828;12.396;2023-05-07T22:19:54;7.77;;;7.10;;
4210;SDS011;2119;48.828;12.396;2023-05-07T22:24:54;8.67;;;7.97;;
4210;SDS011;2119;48.828;12.396;2023-05-07T22:30:00;8.73;;;7.93;;
4210;SDS011;2119;48.828;12.396;2023-05-07T22:35:00;8.60;;;7.70;;
4210;SDS011;2119;48.828;12.396;2023-05-07T22:40:01;8.70;;;8.00;;
4210;SDS011;2119;48.828;12.396;2023-05-07T22:45:02;8.97;;;8.17;;
4210;SDS011;2119;48.828;12.396;2023-05-07T22:50:02;8.50;;;7.60;;
4210;SDS011;2119;48.828;12.396;2023-05-07T22:55:04;8.40;;;7.70;;
4210;SDS011;2119;48.828;12.396;2023-05-07T23:00:05;8.70;;;8.00;;
4210;SDS011;2119;48.828;12.396;2023-05-07T23:05:13;7.73;;;7.13;;
4210;SDS011;2119;48.828;12.396;2023-05-07T23:15:18;7.87;;;7.23;;
4210;SDS011;2119;48.828;12.396;2023-05-07T23:20:18;8.40;;;7.70;;
4210;SDS011;2119;48.828;12.396;2023-05-07T23:25:20;7.73;;;7.13;;
4210;SDS011;2119;48.828;12.396;2023-05-07T23:30:20;7.97;;;7.27;;
4210;SDS011;2119;48.828;12.396;2023-05-07T23:35:20;8.33;;;7.57;;
4210;SDS011;2119;48.828;12.396;2023-05-07T23:40:20;8.50;;;7.72;;
4210;SDS011;2119;48.828;12.396;2023-05-07T23:45:22;8.90;;;7.78;;
4210;SDS011;2119;48.828;12.396;2023-05-07T23:50:22;9.20;;;8.30;;
4210;SDS011;2119;48.828;12.396;2023-05-07T23:55:22;7.72;;;7.07;;
